Latest Weather Observations for Lake Macquarie - Cooranbong

IDN60901

Issued at 8:41 am EDT Sunday 26 March 2017 (issued every 10 minutes, with the page automatically refreshed every 10 minutes)

About weather observations | Map of Sydney area stations | Latest observations for Sydney area | Other Formats
Station Details ID: 061412 Name: LAKE MACQUARIE AWS Lat: -33.09 Lon: 151.46 Height: 6.0 m
Data from the previous 72 hours. | See also: Recent months at Lake Macquarie - Cooranbong
Date/Time
EDT
Temp
°C
App
Temp
°C
Dew
Point
°C
Rel
Hum
%
Delta-T
°C
Wind Press
QNH
hPa
Press
MSL
hPa
Rain since
9am
mm
Dir  Spd
km/h
Gust
km/h
Spd
kts
Gust
kts
26/08:30am 20.0 23.5 19.5 97 0.3 CALM 0 0 0 0 1015.6 1015.6 0.0
26/08:00am 19.4 22.2 18.9 97 0.3 W 2 4 1 2 1015.2 1015.2 0.0
26/07:30am 18.5 21.3 17.9 96 0.4 CALM 0 0 0 0 1014.9 1014.9 0.0
26/07:00am 18.5 21.3 17.9 96 0.4 CALM 0 0 0 0 1014.8 1014.8 0.0
26/06:30am 18.6 21.3 17.8 95 0.5 CALM 0 0 0 0 1014.1 1014.1 0.0
26/06:00am 19.1 22.0 18.3 95 0.5 CALM 0 0 0 0 1013.8 1013.8 0.0
26/05:30am 19.3 22.3 18.5 95 0.5 CALM 0 0 0 0 1013.7 1013.7 0.0
26/05:00am 19.2 22.1 18.2 94 0.6 CALM 0 0 0 0 1013.6 1013.6 0.0
26/04:30am 19.4 22.5 18.6 95 0.5 CALM 0 0 0 0 1013.5 1013.5 0.0
26/04:00am 19.3 22.2 18.3 94 0.6 CALM 0 0 0 0 1013.5 1013.5 0.0
26/03:30am 19.5 22.1 18.5 94 0.6 W 2 4 1 2 1013.5 1013.5 0.0
26/03:00am 19.4 22.4 18.4 94 0.6 CALM 0 4 0 2 1013.5 1013.5 0.0
26/02:30am 19.4 22.3 18.2 93 0.7 CALM 0 0 0 0 1013.7 1013.7 0.0
26/02:00am 19.6 22.6 18.4 93 0.7 CALM 0 0 0 0 1013.9 1013.9 0.0
26/01:30am 19.9 22.6 18.6 92 0.8 N 2 4 1 2 1014.1 1014.1 0.0
26/01:00am 20.2 23.2 18.5 90 1.1 CALM 0 0 0 0 1014.7 1014.7 0.0
26/12:30am 20.8 24.1 19.1 90 1.1 CALM 0 0 0 0 1014.9 1014.9 0.0
26/12:00am 20.8 24.1 19.1 90 1.1 CALM 0 0 0 0 1015.1 1015.1 0.0
 
Date/Time
EDT
Temp
°C
App
Temp
°C
Dew
Point
°C
Rel
Hum
%
Delta-T
°C
Wind Press
QNH
hPa
Press
MSL
hPa
Rain since
9am
mm
Dir  Spd
km/h
Gust
km/h
Spd
kts
Gust
kts
25/11:30pm 20.7 23.5 18.8 89 1.2 NNW 2 4 1 2 1014.7 1014.7 0.0
25/11:00pm 20.9 24.2 19.0 89 1.2 CALM 0 0 0 0 1015.2 1015.2 0.0
25/10:30pm 21.1 24.4 19.2 89 1.2 CALM 0 0 0 0 1015.0 1015.0 0.0
25/10:00pm 21.0 24.2 18.9 88 1.3 CALM 0 0 0 0 1015.1 1015.1 0.0
25/09:30pm 21.2 24.4 18.8 86 1.5 CALM 0 0 0 0 1015.0 1015.0 0.0
25/09:00pm 21.4 24.5 18.6 84 1.8 CALM 0 0 0 0 1014.7 1014.7 0.0
25/08:30pm 21.6 24.6 18.4 82 2.0 CALM 0 0 0 0 1014.5 1014.5 0.0
25/08:00pm 21.8 24.5 17.8 78 2.5 CALM 0 4 0 2 1014.2 1014.2 0.0
25/07:30pm 22.2 24.8 17.6 75 2.8 CALM 0 0 0 0 1014.0 1014.0 0.0
25/07:00pm 22.4 24.6 17.5 74 3.0 SE 2 4 1 2 1014.0 1014.0 0.0
25/06:30pm 22.5 23.8 17.0 71 3.4 ESE 6 9 3 5 1014.0 1014.0 0.0
25/06:00pm 22.8 24.6 17.3 71 3.4 ESE 4 9 2 5 1013.9 1013.9 0.0
25/05:30pm 23.3 23.4 16.4 65 4.2 ESE 11 19 6 10 1013.7 1013.7 0.0
25/05:00pm 23.9 24.5 16.9 65 4.3 E 9 15 5 8 1013.6 1013.6 0.0
25/04:30pm 24.3 25.0 17.1 64 4.5 ESE 9 15 5 8 1013.5 1013.5 0.0
25/04:00pm 23.7 24.4 17.0 66 4.1 E 9 17 5 9 1013.7 1013.7 0.0
25/03:30pm 24.0 25.1 17.0 65 4.3 E 7 15 4 8 1014.2 1014.2 0.0
25/03:00pm 24.1 25.6 17.6 67 4.0 ENE 6 11 3 6 1014.1 1014.1 0.0
25/02:30pm 22.7 23.8 16.5 68 3.8 E 6 9 3 5 1014.7 1014.7 0.0
25/02:00pm 23.1 24.0 16.6 67 4.0 ESE 7 13 4 7 1015.3 1015.3 0.0
25/01:30pm 23.2 24.0 16.3 65 4.2 ESE 7 13 4 7 1015.7 1015.7 0.0
25/01:00pm 23.3 24.4 16.6 66 4.1 ESE 6 9 3 5 1016.4 1016.4 0.0
25/12:30pm 23.2 23.9 16.0 64 4.4 ESE 7 13 4 7 1016.8 1016.8 0.0
25/12:00pm 23.5 24.1 15.3 60 4.9 N 6 9 3 5 1017.2 1017.2 0.0
25/11:30am 23.6 24.9 16.1 62 4.6 E 4 9 2 5 1017.4 1017.4 0.0
25/11:00am 23.5 24.5 16.3 64 4.4 NNE 6 9 3 5 1017.7 1017.7 0.0
25/10:30am 22.9 24.3 15.5 63 4.4 N 2 11 1 6 1018.0 1018.0 0.0
25/10:00am 23.4 25.5 17.2 68 3.8 N 2 7 1 4 1018.0 1018.0 0.0
25/09:30am 22.1 23.8 16.1 69 3.6 N 2 6 1 3 1017.7 1017.7 0.0
25/09:00am 20.2 22.4 16.6 80 2.2 CALM 0 0 0 0 1017.7 1017.7 1.8
25/08:30am 18.9 21.2 17.6 92 0.8 NNW 2 6 1 3 1017.3 1017.3 1.8
25/08:00am 17.7 19.6 16.7 94 0.6 NW 2 4 1 2 1017.3 1017.3 1.8
25/07:30am 17.6 19.5 16.8 95 0.5 NNW 2 4 1 2 1017.5 1017.5 1.8
25/07:00am 17.7 20.0 16.7 94 0.6 CALM 0 0 0 0 1017.3 1017.3 1.8
25/06:30am 17.6 19.5 16.6 94 0.6 NNW 2 4 1 2 1017.6 1017.6 1.8
25/06:00am 17.8 19.7 16.8 94 0.6 NW 2 4 1 2 1017.6 1017.6 1.8
25/05:30am 18.0 20.4 17.0 94 0.6 CALM 0 0 0 0 1017.3 1017.3 1.8
25/05:00am 18.2 20.6 17.0 93 0.7 CALM 0 0 0 0 1017.4 1017.4 1.8
25/04:30am 18.0 20.4 16.9 93 0.7 CALM 0 0 0 0 1017.3 1017.3 1.8
25/04:00am 18.1 20.5 17.0 93 0.7 CALM 0 0 0 0 1017.3 1017.3 1.8
25/03:30am 18.2 20.6 17.0 93 0.7 CALM 0 0 0 0 1017.5 1017.5 1.8
25/03:00am 18.1 20.0 16.8 92 0.8 N 2 4 1 2 1017.8 1017.8 1.8
25/02:30am 18.1 20.5 17.0 93 0.7 CALM 0 0 0 0 1018.2 1018.2 1.8
25/02:00am 18.1 20.0 16.8 92 0.8 NNW 2 4 1 2 1018.6 1018.6 1.8
25/01:30am 18.3 20.8 17.3 94 0.6 CALM 0 0 0 0 1018.9 1018.9 1.8
25/01:00am 18.3 20.8 17.3 94 0.6 CALM 0 6 0 3 1019.2 1019.2 1.8
25/12:30am 18.3 20.8 17.3 94 0.6 CALM 0 0 0 0 1019.3 1019.3 1.8
25/12:00am 18.5 21.0 17.3 93 0.7 CALM 0 4 0 2 1019.8 1019.8 1.8
 
Date/Time
EDT
Temp
°C
App
Temp
°C
Dew
Point
°C
Rel
Hum
%
Delta-T
°C
Wind Press
QNH
hPa
Press
MSL
hPa
Rain since
9am
mm
Dir  Spd
km/h
Gust
km/h
Spd
kts
Gust
kts
24/11:30pm 18.6 21.2 17.4 93 0.7 CALM 0 0 0 0 1020.0 1020.0 1.8
24/11:00pm 19.0 21.7 17.8 93 0.7 CALM 0 2 0 1 1020.0 1020.0 1.8
24/10:30pm 19.1 21.8 17.8 92 0.8 CALM 0 0 0 0 1019.8 1019.8 1.8
24/10:00pm 19.2 21.9 17.7 91 0.9 CALM 0 0 0 0 1020.2 1020.2 1.8
24/09:30pm 19.3 21.6 17.6 90 1.0 NW 2 4 1 2 1020.1 1020.1 1.8
24/09:00pm 19.1 21.3 17.4 90 1.0 SW 2 6 1 3 1019.9 1019.9 1.8
24/08:30pm 19.2 21.9 17.7 91 0.9 CALM 0 2 0 1 1019.4 1019.4 1.8
24/08:00pm 19.2 21.5 17.7 91 0.9 WSW 2 4 1 2 1019.3 1019.3 1.8
24/07:30pm 19.5 21.9 18.0 91 0.9 SW 2 6 1 3 1019.3 1019.3 1.8
24/07:00pm 19.7 22.4 17.8 89 1.2 CALM 0 4 0 2 1019.1 1019.1 1.6
24/06:30pm 20.3 21.9 16.9 81 2.1 SSE 4 9 2 5 1019.1 1019.1 1.2
24/06:00pm 22.1 23.3 15.9 68 3.7 ESE 4 6 2 3 1018.7 1018.7 0.2
24/05:30pm 22.1 22.8 15.7 67 3.8 E 6 11 3 6 1018.6 1018.6 0.2
24/05:00pm 22.2 23.4 16.0 68 3.7 ESE 4 9 2 5 1018.6 1018.6 0.2
24/04:30pm 22.5 22.9 16.3 68 3.8 SE 9 19 5 10 1018.5 1018.5 0.2
24/04:00pm 22.6 23.4 15.9 66 4.0 SSE 6 13 3 7 1018.5 1018.5 0.2
24/03:30pm 22.9 23.7 16.4 67 4.0 SSE 7 15 4 8 1018.6 1018.6 0.2
24/03:00pm 22.4 23.9 18.0 76 2.7 SE 7 17 4 9 1019.0 1019.0 0.2
24/02:30pm 21.2 23.3 18.0 82 2.0 S 4 9 2 5 1019.3 1019.3 0.2
24/02:00pm 22.5 23.1 16.8 70 3.5 SSE 9 17 5 9 1019.3 1019.3 0.0
24/01:30pm 24.1 23.6 15.9 60 5.0 ESE 13 22 7 12 1019.2 1019.2 0.0
24/01:00pm 23.7 23.7 16.2 63 4.6 SE 11 19 6 10 1019.5 1019.5 0.0
24/12:30pm 24.2 24.5 15.9 59 5.0 SSE 9 17 5 9 1019.7 1019.7 0.0
24/12:00pm 23.0 23.2 15.8 64 4.3 SE 9 15 5 8 1019.9 1019.9 0.0
24/11:30am 24.0 25.0 16.8 64 4.4 SE 7 15 4 8 1020.0 1020.0 0.0
24/11:00am 23.6 25.4 18.7 74 3.1 SSE 7 15 4 8 1020.1 1020.1 0.0
24/10:30am 22.9 25.3 18.7 77 2.7 WSW 4 9 2 5 1020.1 1020.1 0.0
24/10:00am 20.9 22.8 17.7 82 2.0 WSW 4 9 2 5 1019.9 1019.9 0.0
24/09:30am 19.9 22.2 17.7 87 1.4 S 2 6 1 3 1020.0 1020.0 0.0
24/09:00am 19.7 22.0 17.8 89 1.2 SSW 2 6 1 3 1019.9 1019.9 4.2
24/08:30am 19.1 21.4 17.6 91 0.9 SW 2 4 1 2 1019.9 1019.9 4.2
24/08:00am 18.7 20.9 17.5 93 0.7 SW 2 6 1 3 1019.6 1019.6 4.2
24/07:30am 18.4 20.9 17.2 93 0.7 CALM 0 2 0 1 1019.3 1019.3 4.2
24/07:00am 18.5 20.6 17.3 93 0.7 W 2 4 1 2 1019.2 1019.2 4.2
24/06:30am 18.4 19.7 17.2 93 0.7 WSW 6 9 3 5 1019.0 1019.0 4.2
24/06:00am 18.6 20.8 17.4 93 0.7 WSW 2 4 1 2 1018.8 1018.8 4.0
24/05:30am 18.8 21.5 17.8 94 0.6 CALM 0 4 0 2 1018.5 1018.5 3.8
24/05:00am 18.7 21.4 17.7 94 0.6 CALM 0 0 0 0 1018.4 1018.4 3.0
24/04:30am 18.6 20.5 17.6 94 0.6 NNW 4 6 2 3 1018.0 1018.0 3.0
24/04:00am 18.6 20.7 17.3 92 0.8 WSW 2 6 1 3 1017.5 1017.5 3.0
24/03:30am 18.6 21.1 17.3 92 0.8 CALM 0 2 0 1 1017.8 1017.8 2.6
24/03:00am 18.8 20.6 17.3 91 0.9 SW 4 9 2 5 1018.3 1018.3 2.0
24/02:30am 19.7 21.1 17.8 89 1.2 S 7 24 4 13 1018.0 1018.0 1.2
24/02:00am 20.2 21.7 17.6 85 1.6 SW 6 11 3 6 1018.1 1018.1 0.6
24/01:30am 20.1 21.9 17.3 84 1.7 SW 4 9 2 5 1018.1 1018.1 0.6
24/01:00am 20.2 22.1 17.6 85 1.6 SSW 4 11 2 6 1018.5 1018.5 0.6
24/12:30am 20.1 22.5 17.9 87 1.4 WSW 2 7 1 4 1018.5 1018.5 0.6
24/12:00am 20.1 23.0 18.1 88 1.2 CALM 0 7 0 4 1018.3 1018.3 0.6
 
Date/Time
EDT
Temp
°C
App
Temp
°C
Dew
Point
°C
Rel
Hum
%
Delta-T
°C
Wind Press
QNH
hPa
Press
MSL
hPa
Rain since
9am
mm
Dir  Spd
km/h
Gust
km/h
Spd
kts
Gust
kts
23/11:30pm 20.0 22.5 18.1 89 1.2 WSW 2 6 1 3 1018.6 1018.6 0.6
23/11:00pm 20.0 22.2 18.3 90 1.1 SW 4 4 2 2 1018.3 1018.3 0.6
23/10:30pm 19.9 22.5 18.4 91 0.9 SSW 2 6 1 3 1018.5 1018.5 0.6
23/10:00pm 20.0 23.2 18.8 93 0.7 CALM 0 0 0 0 1018.5 1018.5 0.6
23/09:30pm 19.6 22.5 18.3 92 0.8 CALM 0 0 0 0 1018.4 1018.4 0.6
23/09:00pm 20.2 23.3 18.7 91 0.9 CALM 0 0 0 0 1018.3 1018.3 0.6
23/08:30pm 20.3 23.3 18.4 89 1.2 CALM 0 0 0 0 1017.9 1017.9 0.6
23/08:00pm 20.3 23.2 18.2 88 1.3 CALM 0 2 0 1 1017.6 1017.6 0.4
23/07:30pm 20.5 23.4 18.1 86 1.5 CALM 0 4 0 2 1017.4 1017.4 0.4
23/07:00pm 21.1 22.6 17.7 81 2.1 SW 6 9 3 5 1017.2 1017.2 0.0
23/06:30pm 22.1 24.5 17.9 77 2.6 S 2 6 1 3 1017.2 1017.2 0.0
23/06:00pm 22.2 24.1 17.6 75 2.8 SW 4 7 2 4 1017.2 1017.2 0.0
23/05:30pm 22.6 24.9 17.7 74 3.0 SSE 2 6 1 3 1016.8 1016.8 0.0
23/05:00pm 22.8 25.0 17.5 72 3.3 SSE 2 4 1 2 1017.0 1017.0 0.0
23/04:30pm 22.9 25.2 17.6 72 3.3 SSE 2 6 1 3 1017.0 1017.0 0.0
23/04:00pm 23.1 25.0 17.6 71 3.4 SW 4 6 2 3 1017.2 1017.2 0.0
23/03:30pm 23.2 24.5 17.0 68 3.8 SW 6 9 3 5 1017.2 1017.2 0.0
23/03:00pm 23.6 25.7 18.0 71 3.5 SW 4 11 2 6 1017.2 1017.2 0.0
23/02:30pm 23.8 25.6 17.5 68 3.9 SW 4 9 2 5 1017.3 1017.3 0.0
23/02:00pm 24.0 26.1 18.0 69 3.8 SSW 4 11 2 6 1017.5 1017.5 0.0
23/01:30pm 23.2 25.0 17.4 70 3.6 SW 4 15 2 8 1018.2 1018.2 0.0
23/01:00pm 23.9 25.3 17.9 69 3.7 S 7 15 4 8 1018.3 1018.3 0.0
23/12:30pm 23.4 25.0 17.8 71 3.5 SW 6 11 3 6 1018.7 1018.7 0.0
23/12:00pm 23.2 24.6 17.7 71 3.4 SW 7 15 4 8 1019.0 1019.0 0.0
23/11:30am 23.0 24.7 18.1 74 3.1 SSW 6 11 3 6 1019.0 1019.0 0.0
23/11:00am 23.0 24.6 17.9 73 3.2 SW 6 9 3 5 1018.9 1018.9 0.0
23/10:30am 22.8 24.3 18.1 75 2.9 S 7 17 4 9 1019.0 1019.0 0.0
23/10:00am 22.7 24.4 18.0 75 2.9 SSW 6 11 3 6 1018.8 1018.8 0.0
23/09:30am 22.1 24.2 18.1 78 2.5 SW 4 6 2 3 1018.7 1018.7 0.0
23/09:00am 21.7 23.7 17.9 79 2.4 SW 4 7 2 4 1018.6 1018.6 2.2

Latest Capital City Observations: Canberra | Sydney | Melbourne | Brisbane | Adelaide | Perth | Hobart | Darwin

Other Formats:

Comma delimited format used in spreadsheet applications
http://www.bom.gov.au/fwo/IDN60901/IDN60901.95767.axf

JavaScript Object Notation format (JSON) in row-major order
http://www.bom.gov.au/fwo/IDN60901/IDN60901.95767.json